RPVPWBSB

Guest
Details From RPVP - PUERTO PRINCESA
To WBSB - Brunei Intl
Flight Number -
Tags decoded
Created
Modified
Stats Distance 379 nm / 703 km
Max Altitude 0 ft / 0 m
Waypoints 5
Social Downloads 0
Likes 0
Share VATSIM

Download

Looking for another format? Having issues loading an existing format? Contact us
Advertisement - Login to hide

Notes

Requested: RPVP VJN VLB BRU WBSB

Route

RPVP VJN VLB BRU WBSB

ID Type Via Altitude Latitude Longitude Leg Dist Tot Dist Heading (true) Name
O RPVP APT - 0 ft / 0 m 9.74212˚ 118.75873˚ - 0 nm - PUERTO PRINCESA
VJN VOR - 0 ft / 0 m 5.89967˚ 116.02994˚ 282 nm 282 nm 215° / 215° KOTA KINABALU VOR-DME
VLB VOR - 0 ft / 0 m 5.29000˚ 115.25172˚ 59 nm 341 nm 232° / 232° LABUAN VOR-DME
BRU VOR - 0 ft / 0 m 4.87459˚ 114.88549˚ 33 nm 374 nm 221° / 221° BRUNEI VOR-DME
O WBSB APT - 0 ft / 0 m 4.94417˚ 114.92833˚ 4 nm 379 nm 32° / 32° Brunei Intl

Altitude Profile

Advertisement - Login to hide

Weather


0- 5 10 15 20 25 30 35+ Temperature / ° C

Clouds and Precipitation
Forecast for 2017-12-13 12:00 UTC. Updated 24 minutes ago

Ground ~20,000 ft ~40,000 ft Winds

RPVP

Details ICAO RPVP (PPS)
Name PUERTO PRINCESA
Region Philippines
Timezone Asia/Manila (UTC+8.0)
Stats Elevation 71 ft / 22 m (AMSL)
Location 9.742119° 118.758730°
Runways 1
Magnetic Variation 1.155° W

METAR

RPVP 130800Z 16004KT 9999 -TSRA FEW017CB SCT019 OVC070 27/24 Q1007 RMK A2974CB NNW W/ OCNL TS

Decode

TAF

Not found

Departure Runways

ID Width Length Bearing (true) Bearing (mag) Surface Threshold Offset Overrun Length
09 148 ft / 45 m 8,526 ft / 2,599 m 92.52° 93.67° Concrete 0 ft / 0 m 560 ft / 171 m
27 148 ft / 45 m 8,526 ft / 2,599 m 272.52° 273.67° Concrete 0 ft / 0 m 574 ft / 175 m

WBSB

Details ICAO WBSB (BWN)
Name Brunei Intl
Region Brunei and Malaysia
Timezone Asia/Brunei (UTC+8.0)
Stats Elevation 73 ft / 22 m (AMSL)
Location 4.944172° 114.928327°
Runways 1
Magnetic Variation 0.211° W

METAR

WBSB 130930Z 19007KT 9999 SCT014 BKN140 26/24 Q1009 NOSIG

Decode

TAF

TAF WBSB 130500Z 1306/1412 28008KT 9999 SCT015 FEW016CB TEMPO 1306/1310 7000 -SHRA BECMG 1310/1312 22004KT SCT014 FEW015CB

Decode

Destination Runways

ID Width Length Bearing (true) Bearing (mag) Surface Threshold Offset Overrun Length
03 151 ft / 46 m 12,044 ft / 3,671 m 30.90° 31.11° Asphalt 0 ft / 0 m 69 ft / 21 m
21 151 ft / 46 m 12,044 ft / 3,671 m 210.90° 211.11° Asphalt 0 ft / 0 m 69 ft / 21 m

Approach Navaids

Runway Type Ident Frequency Range Bearing (true) Bearing (mag) Slope Elevation
03 Localiser BE 108.90 MHz 18 nm / 33 km 30.92° 31.13° - 73 ft / 22 m (AMSL)
03 Glidescope BE 108.90 MHz 10 nm / 19 km 30.90° 31.11° 3.00° 73 ft / 22 m (AMSL)
03 DME BE 108.90 MHz 18 nm / 33 km - - - 20 ft / 6 m (AMSL)
21 Localiser BI 109.70 MHz 18 nm / 33 km 210.90° 211.11° - 20 ft / 6 m (AMSL)
21 Glidescope BI 109.70 MHz 10 nm / 19 km 210.90° 211.11° 3.00° 73 ft / 22 m (AMSL)
21 DME BI 109.70 MHz 18 nm / 33 km - - - 73 ft / 22 m (AMSL)